To NAV CANADA Home Page Login to a new session Search on AWWS site Feedback and Comments Disclaimer Vers la page française équivalente Tips FAQ What's new on the site To the Forecasts and Observations / NOTAM section To "File a Flight Plan" website Publications and other links Update of the User's profile FIC Telephone Numbers My Weather Data Folder Route Weather Data Regional Weather Data Local Weather Data To the Forecasts and Observations / NOTAM section
Request Generated 10/17/2017 at 01:46:55 UTC . Weather information available at that time is displayed.

METAR/TAF

NATASHQUAN/QC    (show WxCam)

METAR CYNA 170100Z AUTO 32005KT 9SM OVC050 01/M01 A2993 RMK SLP139=
METAR CYNA 170000Z AUTO 31003KT 9SM CLR 00/M01 A2992 RMK SLP133=
METAR CYNA 162300Z AUTO 33005KT 9SM CLR 02/M01 A2989 RMK SLP125=

TAF CYNA 170138Z 1702/1714 32005KT P6SM BKN050
FM171100 32005KT P6SM SCT040
RMK FCST BASED ON AUTO OBS. NXT FCST BY 170800Z=
Your time UTC time
Weather data provided by Environment Canada and NAV CANADA